sensor_id;sensor_type;location;lat;lon;timestamp;temperature;humidity
43520;DHT22;46848;51.980;5.918;2022-08-01T00:00:33;22.30;78.40
43520;DHT22;46848;51.980;5.918;2022-08-01T00:02:59;22.30;78.40
43520;DHT22;46848;51.980;5.918;2022-08-01T00:05:24;22.20;78.30
43520;DHT22;46848;51.980;5.918;2022-08-01T00:07:50;22.30;78.40
43520;DHT22;46848;51.980;5.918;2022-08-01T00:10:16;22.30;78.40
43520;DHT22;46848;51.980;5.918;2022-08-01T00:12:43;22.20;78.30
43520;DHT22;46848;51.980;5.918;2022-08-01T00:15:11;22.20;78.40
43520;DHT22;46848;51.980;5.918;2022-08-01T00:17:37;22.20;78.30
43520;DHT22;46848;51.980;5.918;2022-08-01T00:20:06;22.20;78.40
43520;DHT22;46848;51.980;5.918;2022-08-01T00:22:33;22.20;78.90
43520;DHT22;46848;51.980;5.918;2022-08-01T00:25:00;22.10;78.50
43520;DHT22;46848;51.980;5.918;2022-08-01T00:27:26;22.10;78.40
43520;DHT22;46848;51.980;5.918;2022-08-01T00:29:51;22.20;78.50
43520;DHT22;46848;51.980;5.918;2022-08-01T00:32:17;22.10;78.50
43520;DHT22;46848;51.980;5.918;2022-08-01T00:34:43;22.10;78.40
43520;DHT22;46848;51.980;5.918;2022-08-01T00:37:08;22.00;78.40
43520;DHT22;46848;51.980;5.918;2022-08-01T00:39:34;22.00;78.50
43520;DHT22;46848;51.980;5.918;2022-08-01T00:42:05;22.10;78.60
43520;DHT22;46848;51.980;5.918;2022-08-01T00:44:31;22.00;78.50
43520;DHT22;46848;51.980;5.918;2022-08-01T00:46:57;22.00;78.50
43520;DHT22;46848;51.980;5.918;2022-08-01T00:49:22;22.00;78.50
43520;DHT22;46848;51.980;5.918;2022-08-01T00:51:48;22.00;78.40
43520;DHT22;46848;51.980;5.918;2022-08-01T00:54:15;22.00;78.40
43520;DHT22;46848;51.980;5.918;2022-08-01T00:56:40;22.00;78.40
43520;DHT22;46848;51.980;5.918;2022-08-01T00:59:07;22.00;78.40
43520;DHT22;46848;51.980;5.918;2022-08-01T01:01:33;22.00;78.30
43520;DHT22;46848;51.980;5.918;2022-08-01T01:04:00;22.00;78.20
43520;DHT22;46848;51.980;5.918;2022-08-01T01:10:01;22.00;78.30
43520;DHT22;46848;51.980;5.918;2022-08-01T01:12:30;22.00;78.20
43520;DHT22;46848;51.980;5.918;2022-08-01T01:20:12;22.00;78.20
43520;DHT22;46848;51.980;5.918;2022-08-01T01:28:15;21.90;78.10
43520;DHT22;46848;51.980;5.918;2022-08-01T01:30:45;21.90;78.10
43520;DHT22;46848;51.980;5.918;2022-08-01T01:33:12;21.90;78.10
43520;DHT22;46848;51.980;5.918;2022-08-01T01:35:45;21.90;78.10
43520;DHT22;46848;51.980;5.918;2022-08-01T01:38:19;21.90;78.10
43520;DHT22;46848;51.980;5.918;2022-08-01T01:40:47;21.90;78.10
43520;DHT22;46848;51.980;5.918;2022-08-01T01:43:15;21.90;78.10
43520;DHT22;46848;51.980;5.918;2022-08-01T01:45:42;21.90;78.00
43520;DHT22;46848;51.980;5.918;2022-08-01T01:48:13;21.90;78.10
43520;DHT22;46848;51.980;5.918;2022-08-01T01:50:40;21.90;78.10
43520;DHT22;46848;51.980;5.918;2022-08-01T01:53:07;21.80;78.10
43520;DHT22;46848;51.980;5.918;2022-08-01T01:55:37;21.90;78.20
43520;DHT22;46848;51.980;5.918;2022-08-01T01:58:05;21.80;78.10
43520;DHT22;46848;51.980;5.918;2022-08-01T02:00:32;21.80;78.20
43520;DHT22;46848;51.980;5.918;2022-08-01T02:03:00;21.80;78.20
43520;DHT22;46848;51.980;5.918;2022-08-01T02:05:28;21.80;78.30
43520;DHT22;46848;51.980;5.918;2022-08-01T02:07:54;21.80;78.20
43520;DHT22;46848;51.980;5.918;2022-08-01T02:10:21;21.80;78.40
43520;DHT22;46848;51.980;5.918;2022-08-01T02:12:49;21.80;78.30
43520;DHT22;46848;51.980;5.918;2022-08-01T02:15:15;21.80;78.40
43520;DHT22;46848;51.980;5.918;2022-08-01T02:17:45;21.80;78.40
43520;DHT22;46848;51.980;5.918;2022-08-01T02:20:13;21.80;78.40
43520;DHT22;46848;51.980;5.918;2022-08-01T02:22:52;21.80;78.50
43520;DHT22;46848;51.980;5.918;2022-08-01T02:25:32;21.80;78.50
43520;DHT22;46848;51.980;5.918;2022-08-01T02:28:01;21.80;78.60
43520;DHT22;46848;51.980;5.918;2022-08-01T02:30:33;21.70;78.60
43520;DHT22;46848;51.980;5.918;2022-08-01T02:33:05;21.70;78.60
43520;DHT22;46848;51.980;5.918;2022-08-01T02:35:35;21.80;78.60
43520;DHT22;46848;51.980;5.918;2022-08-01T02:38:04;21.80;78.60
43520;DHT22;46848;51.980;5.918;2022-08-01T02:40:32;21.70;78.60
43520;DHT22;46848;51.980;5.918;2022-08-01T02:43:00;21.80;78.80
43520;DHT22;46848;51.980;5.918;2022-08-01T02:45:26;21.80;78.90
43520;DHT22;46848;51.980;5.918;2022-08-01T02:47:57;21.80;79.10
43520;DHT22;46848;51.980;5.918;2022-08-01T02:50:26;21.80;79.20
43520;DHT22;46848;51.980;5.918;2022-08-01T02:52:52;21.80;79.40
43520;DHT22;46848;51.980;5.918;2022-08-01T02:55:20;21.80;79.50
43520;DHT22;46848;51.980;5.918;2022-08-01T02:57:47;21.80;79.60
43520;DHT22;46848;51.980;5.918;2022-08-01T03:00:16;21.80;79.70
43520;DHT22;46848;51.980;5.918;2022-08-01T03:02:43;21.80;79.80
43520;DHT22;46848;51.980;5.918;2022-08-01T03:05:11;21.80;79.80
43520;DHT22;46848;51.980;5.918;2022-08-01T03:07:38;21.80;80.00
43520;DHT22;46848;51.980;5.918;2022-08-01T03:10:05;21.80;80.00
43520;DHT22;46848;51.980;5.918;2022-08-01T03:12:33;21.80;80.10
43520;DHT22;46848;51.980;5.918;2022-08-01T03:15:00;21.70;80.10
43520;DHT22;46848;51.980;5.918;2022-08-01T03:17:29;21.80;80.20
43520;DHT22;46848;51.980;5.918;2022-08-01T03:19:56;21.70;80.20
43520;DHT22;46848;51.980;5.918;2022-08-01T03:22:24;21.70;80.30
43520;DHT22;46848;51.980;5.918;2022-08-01T03:24:52;21.80;80.30
43520;DHT22;46848;51.980;5.918;2022-08-01T03:27:20;21.80;80.30
43520;DHT22;46848;51.980;5.918;2022-08-01T03:29:47;21.70;80.30
43520;DHT22;46848;51.980;5.918;2022-08-01T03:32:14;21.70;80.30
43520;DHT22;46848;51.980;5.918;2022-08-01T03:34:41;21.70;80.30
43520;DHT22;46848;51.980;5.918;2022-08-01T03:37:28;21.70;80.30
43520;DHT22;46848;51.980;5.918;2022-08-01T03:40:06;21.70;80.40
43520;DHT22;46848;51.980;5.918;2022-08-01T03:42:44;21.70;80.40
43520;DHT22;46848;51.980;5.918;2022-08-01T03:45:15;21.70;80.40
43520;DHT22;46848;51.980;5.918;2022-08-01T03:47:46;21.60;80.30
43520;DHT22;46848;51.980;5.918;2022-08-01T03:50:14;21.70;80.30
43520;DHT22;46848;51.980;5.918;2022-08-01T03:52:43;21.60;80.20
43520;DHT22;46848;51.980;5.918;2022-08-01T03:55:11;21.60;80.20
43520;DHT22;46848;51.980;5.918;2022-08-01T03:57:38;21.60;80.10
43520;DHT22;46848;51.980;5.918;2022-08-01T04:00:06;21.60;80.10
43520;DHT22;46848;51.980;5.918;2022-08-01T04:02:35;21.60;80.30
43520;DHT22;46848;51.980;5.918;2022-08-01T04:05:03;21.50;80.20
43520;DHT22;46848;51.980;5.918;2022-08-01T04:07:31;21.60;80.40
43520;DHT22;46848;51.980;5.918;2022-08-01T04:09:57;21.60;80.40
43520;DHT22;46848;51.980;5.918;2022-08-01T04:12:24;21.60;80.40
43520;DHT22;46848;51.980;5.918;2022-08-01T04:14:49;21.60;80.50
43520;DHT22;46848;51.980;5.918;2022-08-01T04:17:16;21.60;80.50
43520;DHT22;46848;51.980;5.918;2022-08-01T04:19:42;21.60;80.60
43520;DHT22;46848;51.980;5.918;2022-08-01T04:22:10;21.60;80.60
43520;DHT22;46848;51.980;5.918;2022-08-01T04:24:37;21.60;80.60
43520;DHT22;46848;51.980;5.918;2022-08-01T04:27:08;21.60;80.60
43520;DHT22;46848;51.980;5.918;2022-08-01T04:29:36;21.50;80.50
43520;DHT22;46848;51.980;5.918;2022-08-01T04:32:03;21.50;80.50
43520;DHT22;46848;51.980;5.918;2022-08-01T04:34:32;21.50;80.50
43520;DHT22;46848;51.980;5.918;2022-08-01T04:36:58;21.50;80.40
43520;DHT22;46848;51.980;5.918;2022-08-01T04:39:27;21.50;80.50
43520;DHT22;46848;51.980;5.918;2022-08-01T04:41:54;21.50;80.50
43520;DHT22;46848;51.980;5.918;2022-08-01T04:44:23;21.50;80.50
43520;DHT22;46848;51.980;5.918;2022-08-01T04:46:49;21.50;80.50
43520;DHT22;46848;51.980;5.918;2022-08-01T04:49:16;21.50;80.50
43520;DHT22;46848;51.980;5.918;2022-08-01T04:51:53;21.50;80.60
43520;DHT22;46848;51.980;5.918;2022-08-01T04:54:26;21.50;80.60
43520;DHT22;46848;51.980;5.918;2022-08-01T04:56:53;21.50;80.50
43520;DHT22;46848;51.980;5.918;2022-08-01T04:59:24;21.50;80.50
43520;DHT22;46848;51.980;5.918;2022-08-01T05:02:05;21.50;80.60
43520;DHT22;46848;51.980;5.918;2022-08-01T05:04:30;21.50;80.60
43520;DHT22;46848;51.980;5.918;2022-08-01T05:06:56;21.60;80.70
43520;DHT22;46848;51.980;5.918;2022-08-01T05:09:22;21.60;80.70
43520;DHT22;46848;51.980;5.918;2022-08-01T05:11:48;21.60;80.70
43520;DHT22;46848;51.980;5.918;2022-08-01T05:14:13;21.60;80.60
43520;DHT22;46848;51.980;5.918;2022-08-01T05:16:39;21.60;80.60
43520;DHT22;46848;51.980;5.918;2022-08-01T05:19:04;21.60;80.60
43520;DHT22;46848;51.980;5.918;2022-08-01T05:21:30;21.70;80.60
43520;DHT22;46848;51.980;5.918;2022-08-01T05:23:56;21.60;80.40
43520;DHT22;46848;51.980;5.918;2022-08-01T05:26:23;21.70;80.50
43520;DHT22;46848;51.980;5.918;2022-08-01T05:28:49;21.60;80.50
43520;DHT22;46848;51.980;5.918;2022-08-01T05:31:14;21.70;80.50
43520;DHT22;46848;51.980;5.918;2022-08-01T05:33:40;21.70;80.50
43520;DHT22;46848;51.980;5.918;2022-08-01T05:36:05;21.70;80.40
43520;DHT22;46848;51.980;5.918;2022-08-01T05:38:31;21.70;80.30
43520;DHT22;46848;51.980;5.918;2022-08-01T05:40:57;21.70;80.20
43520;DHT22;46848;51.980;5.918;2022-08-01T05:43:22;21.70;80.20
43520;DHT22;46848;51.980;5.918;2022-08-01T05:45:48;21.80;80.30
43520;DHT22;46848;51.980;5.918;2022-08-01T05:48:14;21.80;80.20
43520;DHT22;46848;51.980;5.918;2022-08-01T05:50:39;21.80;80.20
43520;DHT22;46848;51.980;5.918;2022-08-01T05:53:05;21.80;80.20
43520;DHT22;46848;51.980;5.918;2022-08-01T05:55:31;21.80;80.10
43520;DHT22;46848;51.980;5.918;2022-08-01T05:57:56;21.80;80.20
43520;DHT22;46848;51.980;5.918;2022-08-01T06:00:22;21.80;80.10
43520;DHT22;46848;51.980;5.918;2022-08-01T06:02:48;21.80;80.10
43520;DHT22;46848;51.980;5.918;2022-08-01T06:05:13;21.80;80.10
43520;DHT22;46848;51.980;5.918;2022-08-01T06:07:39;21.80;80.00
43520;DHT22;46848;51.980;5.918;2022-08-01T06:10:06;21.80;80.00
43520;DHT22;46848;51.980;5.918;2022-08-01T06:12:36;21.80;79.90
43520;DHT22;46848;51.980;5.918;2022-08-01T06:15:04;21.80;79.90
43520;DHT22;46848;51.980;5.918;2022-08-01T06:17:30;21.90;80.00
43520;DHT22;46848;51.980;5.918;2022-08-01T06:19:55;21.90;80.00
43520;DHT22;46848;51.980;5.918;2022-08-01T06:22:21;22.00;80.00
43520;DHT22;46848;51.980;5.918;2022-08-01T06:24:47;22.00;79.80
43520;DHT22;46848;51.980;5.918;2022-08-01T06:27:12;22.10;79.70
43520;DHT22;46848;51.980;5.918;2022-08-01T06:29:38;22.10;79.50
43520;DHT22;46848;51.980;5.918;2022-08-01T06:32:04;22.20;79.40
43520;DHT22;46848;51.980;5.918;2022-08-01T06:34:29;22.20;79.20
43520;DHT22;46848;51.980;5.918;2022-08-01T06:36:55;22.20;79.00
43520;DHT22;46848;51.980;5.918;2022-08-01T06:39:21;22.30;78.90
43520;DHT22;46848;51.980;5.918;2022-08-01T06:41:46;22.30;78.60
43520;DHT22;46848;51.980;5.918;2022-08-01T06:44:13;22.30;78.50
43520;DHT22;46848;51.980;5.918;2022-08-01T06:46:38;22.40;78.40
43520;DHT22;46848;51.980;5.918;2022-08-01T06:49:04;22.40;78.40
43520;DHT22;46848;51.980;5.918;2022-08-01T06:51:30;22.40;78.20
43520;DHT22;46848;51.980;5.918;2022-08-01T06:53:55;22.40;78.10
43520;DHT22;46848;51.980;5.918;2022-08-01T06:56:21;22.50;77.90
43520;DHT22;46848;51.980;5.918;2022-08-01T06:58:47;22.50;77.80
43520;DHT22;46848;51.980;5.918;2022-08-01T07:01:12;22.50;77.70
43520;DHT22;46848;51.980;5.918;2022-08-01T07:03:38;22.50;77.50
43520;DHT22;46848;51.980;5.918;2022-08-01T07:06:04;22.50;77.50
43520;DHT22;46848;51.980;5.918;2022-08-01T07:08:30;22.50;77.40
43520;DHT22;46848;51.980;5.918;2022-08-01T07:10:56;22.50;77.30
43520;DHT22;46848;51.980;5.918;2022-08-01T07:13:25;22.60;77.30
43520;DHT22;46848;51.980;5.918;2022-08-01T07:15:52;22.60;77.30
43520;DHT22;46848;51.980;5.918;2022-08-01T07:18:18;22.60;77.20
43520;DHT22;46848;51.980;5.918;2022-08-01T07:20:43;22.60;77.10
43520;DHT22;46848;51.980;5.918;2022-08-01T07:23:12;22.60;77.00
43520;DHT22;46848;51.980;5.918;2022-08-01T07:25:37;22.70;77.00
43520;DHT22;46848;51.980;5.918;2022-08-01T07:28:03;22.70;77.10
43520;DHT22;46848;51.980;5.918;2022-08-01T07:30:30;22.70;76.90
43520;DHT22;46848;51.980;5.918;2022-08-01T07:32:56;22.70;76.70
43520;DHT22;46848;51.980;5.918;2022-08-01T07:35:22;22.80;76.70
43520;DHT22;46848;51.980;5.918;2022-08-01T07:37:48;22.80;76.50
43520;DHT22;46848;51.980;5.918;2022-08-01T07:40:14;22.80;76.30
43520;DHT22;46848;51.980;5.918;2022-08-01T07:42:39;22.80;76.00
43520;DHT22;46848;51.980;5.918;2022-08-01T07:45:09;22.80;75.80
43520;DHT22;46848;51.980;5.918;2022-08-01T07:47:35;22.80;75.70
43520;DHT22;46848;51.980;5.918;2022-08-01T07:50:02;22.80;75.60
43520;DHT22;46848;51.980;5.918;2022-08-01T07:52:28;22.80;75.50
43520;DHT22;46848;51.980;5.918;2022-08-01T07:54:54;22.90;75.40
43520;DHT22;46848;51.980;5.918;2022-08-01T07:57:20;22.80;75.30
43520;DHT22;46848;51.980;5.918;2022-08-01T07:59:45;22.90;75.40
43520;DHT22;46848;51.980;5.918;2022-08-01T08:02:11;22.90;75.30
43520;DHT22;46848;51.980;5.918;2022-08-01T08:04:37;22.90;75.40
43520;DHT22;46848;51.980;5.918;2022-08-01T08:07:02;22.90;75.30
43520;DHT22;46848;51.980;5.918;2022-08-01T08:09:28;22.90;75.20
43520;DHT22;46848;51.980;5.918;2022-08-01T08:11:54;23.00;75.40
43520;DHT22;46848;51.980;5.918;2022-08-01T08:14:19;22.90;75.40
43520;DHT22;46848;51.980;5.918;2022-08-01T08:16:48;22.90;75.50
43520;DHT22;46848;51.980;5.918;2022-08-01T08:19:13;22.90;75.50
43520;DHT22;46848;51.980;5.918;2022-08-01T08:21:39;22.90;75.40
43520;DHT22;46848;51.980;5.918;2022-08-01T08:24:06;22.90;75.30
43520;DHT22;46848;51.980;5.918;2022-08-01T08:26:53;22.90;75.50
43520;DHT22;46848;51.980;5.918;2022-08-01T08:29:20;22.90;75.50
43520;DHT22;46848;51.980;5.918;2022-08-01T08:31:47;22.90;75.50
43520;DHT22;46848;51.980;5.918;2022-08-01T08:34:12;22.90;75.40
43520;DHT22;46848;51.980;5.918;2022-08-01T08:36:38;22.90;75.40
43520;DHT22;46848;51.980;5.918;2022-08-01T08:39:05;22.90;75.20
43520;DHT22;46848;51.980;5.918;2022-08-01T08:41:31;23.00;75.00
43520;DHT22;46848;51.980;5.918;2022-08-01T08:43:57;23.00;74.70
43520;DHT22;46848;51.980;5.918;2022-08-01T08:46:26;23.00;74.40
43520;DHT22;46848;51.980;5.918;2022-08-01T08:48:53;23.00;74.40
43520;DHT22;46848;51.980;5.918;2022-08-01T08:51:19;23.00;74.30
43520;DHT22;46848;51.980;5.918;2022-08-01T08:53:46;23.00;74.30
43520;DHT22;46848;51.980;5.918;2022-08-01T08:56:13;23.10;74.30
43520;DHT22;46848;51.980;5.918;2022-08-01T08:58:41;23.10;74.30
43520;DHT22;46848;51.980;5.918;2022-08-01T09:01:08;23.20;74.20
43520;DHT22;46848;51.980;5.918;2022-08-01T09:03:35;23.20;74.10
43520;DHT22;46848;51.980;5.918;2022-08-01T09:06:01;23.20;73.90
43520;DHT22;46848;51.980;5.918;2022-08-01T09:08:27;23.30;73.80
43520;DHT22;46848;51.980;5.918;2022-08-01T09:10:53;23.30;73.70
43520;DHT22;46848;51.980;5.918;2022-08-01T09:13:18;23.30;73.70
43520;DHT22;46848;51.980;5.918;2022-08-01T09:15:47;23.30;73.70
43520;DHT22;46848;51.980;5.918;2022-08-01T09:23:43;23.20;74.00
43520;DHT22;46848;51.980;5.918;2022-08-01T09:26:11;23.10;75.00
43520;DHT22;46848;51.980;5.918;2022-08-01T09:28:37;23.00;74.60
43520;DHT22;46848;51.980;5.918;2022-08-01T09:31:11;23.00;74.80
43520;DHT22;46848;51.980;5.918;2022-08-01T09:33:58;22.90;75.20
43520;DHT22;46848;51.980;5.918;2022-08-01T09:36:43;22.90;75.70
43520;DHT22;46848;51.980;5.918;2022-08-01T09:39:13;22.90;75.80
43520;DHT22;46848;51.980;5.918;2022-08-01T09:41:39;22.80;75.90
43520;DHT22;46848;51.980;5.918;2022-08-01T09:44:05;22.80;76.00
43520;DHT22;46848;51.980;5.918;2022-08-01T09:46:30;22.80;76.20
43520;DHT22;46848;51.980;5.918;2022-08-01T09:49:04;22.80;76.40
43520;DHT22;46848;51.980;5.918;2022-08-01T09:51:35;22.70;76.60
43520;DHT22;46848;51.980;5.918;2022-08-01T09:54:03;22.70;76.70
43520;DHT22;46848;51.980;5.918;2022-08-01T09:56:39;22.70;76.80
43520;DHT22;46848;51.980;5.918;2022-08-01T09:59:06;22.70;76.80
43520;DHT22;46848;51.980;5.918;2022-08-01T10:01:50;22.60;76.70
43520;DHT22;46848;51.980;5.918;2022-08-01T10:04:20;22.60;76.70
43520;DHT22;46848;51.980;5.918;2022-08-01T10:06:47;22.60;76.80
43520;DHT22;46848;51.980;5.918;2022-08-01T10:09:29;22.60;76.90
43520;DHT22;46848;51.980;5.918;2022-08-01T10:11:55;22.70;77.00
43520;DHT22;46848;51.980;5.918;2022-08-01T10:14:26;22.70;77.10
43520;DHT22;46848;51.980;5.918;2022-08-01T10:16:52;22.80;77.00
43520;DHT22;46848;51.980;5.918;2022-08-01T10:19:21;22.80;77.00
43520;DHT22;46848;51.980;5.918;2022-08-01T10:21:49;22.90;77.20
43520;DHT22;46848;51.980;5.918;2022-08-01T10:24:22;22.90;77.30
43520;DHT22;46848;51.980;5.918;2022-08-01T10:27:23;23.00;77.10
43520;DHT22;46848;51.980;5.918;2022-08-01T10:32:09;23.00;76.80
43520;DHT22;46848;51.980;5.918;2022-08-01T10:34:36;23.10;77.20
43520;DHT22;46848;51.980;5.918;2022-08-01T10:37:03;23.20;77.30
43520;DHT22;46848;51.980;5.918;2022-08-01T10:39:31;23.30;77.30
43520;DHT22;46848;51.980;5.918;2022-08-01T10:41:56;23.30;77.20
43520;DHT22;46848;51.980;5.918;2022-08-01T10:44:24;23.30;77.10
43520;DHT22;46848;51.980;5.918;2022-08-01T10:46:56;23.40;77.00
43520;DHT22;46848;51.980;5.918;2022-08-01T10:49:27;23.40;76.80
43520;DHT22;46848;51.980;5.918;2022-08-01T10:51:55;23.40;76.60
43520;DHT22;46848;51.980;5.918;2022-08-01T10:54:24;23.50;76.60
43520;DHT22;46848;51.980;5.918;2022-08-01T10:56:51;23.50;76.50
43520;DHT22;46848;51.980;5.918;2022-08-01T11:02:04;23.50;76.20
43520;DHT22;46848;51.980;5.918;2022-08-01T11:05:07;23.60;76.30
43520;DHT22;46848;51.980;5.918;2022-08-01T11:07:42;23.60;76.30
43520;DHT22;46848;51.980;5.918;2022-08-01T11:12:48;23.70;75.80
43520;DHT22;46848;51.980;5.918;2022-08-01T11:17:45;23.80;75.40
43520;DHT22;46848;51.980;5.918;2022-08-01T11:33:07;24.10;73.90
43520;DHT22;46848;51.980;5.918;2022-08-01T11:35:35;24.10;74.00
43520;DHT22;46848;51.980;5.918;2022-08-01T11:38:23;24.20;73.90
43520;DHT22;46848;51.980;5.918;2022-08-01T11:41:12;24.30;73.70
43520;DHT22;46848;51.980;5.918;2022-08-01T11:46:53;24.40;73.30
43520;DHT22;46848;51.980;5.918;2022-08-01T11:52:25;24.60;71.90
43520;DHT22;46848;51.980;5.918;2022-08-01T11:54:52;24.70;71.60
43520;DHT22;46848;51.980;5.918;2022-08-01T11:57:20;24.70;71.60
43520;DHT22;46848;51.980;5.918;2022-08-01T11:59:53;24.70;71.40
43520;DHT22;46848;51.980;5.918;2022-08-01T12:02:30;24.80;71.20
43520;DHT22;46848;51.980;5.918;2022-08-01T12:07:28;25.00;70.80
43520;DHT22;46848;51.980;5.918;2022-08-01T12:10:10;25.10;70.40
43520;DHT22;46848;51.980;5.918;2022-08-01T12:12:37;25.20;70.00
43520;DHT22;46848;51.980;5.918;2022-08-01T12:15:08;25.10;69.40
43520;DHT22;46848;51.980;5.918;2022-08-01T12:17:57;25.10;69.00
43520;DHT22;46848;51.980;5.918;2022-08-01T12:20:24;25.10;68.80
43520;DHT22;46848;51.980;5.918;2022-08-01T12:22:53;25.20;68.80
43520;DHT22;46848;51.980;5.918;2022-08-01T12:25:19;25.20;68.40
43520;DHT22;46848;51.980;5.918;2022-08-01T12:27:46;25.20;68.10
43520;DHT22;46848;51.980;5.918;2022-08-01T12:30:17;25.20;67.90
43520;DHT22;46848;51.980;5.918;2022-08-01T12:32:47;25.20;67.60
43520;DHT22;46848;51.980;5.918;2022-08-01T12:35:14;25.10;67.40
43520;DHT22;46848;51.980;5.918;2022-08-01T12:40:17;25.10;67.20
43520;DHT22;46848;51.980;5.918;2022-08-01T12:42:46;25.10;66.70
43520;DHT22;46848;51.980;5.918;2022-08-01T12:45:15;25.10;66.30
43520;DHT22;46848;51.980;5.918;2022-08-01T12:47:41;25.10;65.90
43520;DHT22;46848;51.980;5.918;2022-08-01T12:50:13;25.10;65.70
43520;DHT22;46848;51.980;5.918;2022-08-01T12:52:39;25.10;65.20
43520;DHT22;46848;51.980;5.918;2022-08-01T12:55:25;25.10;65.20
43520;DHT22;46848;51.980;5.918;2022-08-01T12:58:12;25.10;64.20
43520;DHT22;46848;51.980;5.918;2022-08-01T13:00:40;25.00;64.00
43520;DHT22;46848;51.980;5.918;2022-08-01T13:03:12;25.00;64.30
43520;DHT22;46848;51.980;5.918;2022-08-01T13:05:51;25.00;64.20
43520;DHT22;46848;51.980;5.918;2022-08-01T13:08:21;24.90;64.30
43520;DHT22;46848;51.980;5.918;2022-08-01T13:10:48;24.90;64.20
43520;DHT22;46848;51.980;5.918;2022-08-01T13:13:16;24.90;64.20
43520;DHT22;46848;51.980;5.918;2022-08-01T13:15:43;24.90;64.00
43520;DHT22;46848;51.980;5.918;2022-08-01T13:18:27;24.80;64.00
43520;DHT22;46848;51.980;5.918;2022-08-01T13:23:39;24.90;64.10
43520;DHT22;46848;51.980;5.918;2022-08-01T13:26:05;24.90;63.40
43520;DHT22;46848;51.980;5.918;2022-08-01T13:28:31;24.90;62.60
43520;DHT22;46848;51.980;5.918;2022-08-01T13:33:26;25.00;62.90
43520;DHT22;46848;51.980;5.918;2022-08-01T13:35:53;25.10;62.70
43520;DHT22;46848;51.980;5.918;2022-08-01T13:38:19;25.10;62.80
43520;DHT22;46848;51.980;5.918;2022-08-01T13:40:45;25.30;62.20
43520;DHT22;46848;51.980;5.918;2022-08-01T13:43:11;25.30;61.50
43520;DHT22;46848;51.980;5.918;2022-08-01T13:45:37;25.40;61.30
43520;DHT22;46848;51.980;5.918;2022-08-01T13:48:04;25.50;61.10
43520;DHT22;46848;51.980;5.918;2022-08-01T13:50:30;25.60;61.10
43520;DHT22;46848;51.980;5.918;2022-08-01T13:52:56;25.70;61.10
43520;DHT22;46848;51.980;5.918;2022-08-01T13:55:21;26.00;61.10
43520;DHT22;46848;51.980;5.918;2022-08-01T13:57:47;26.10;60.40
43520;DHT22;46848;51.980;5.918;2022-08-01T14:00:13;26.20;59.70
43520;DHT22;46848;51.980;5.918;2022-08-01T14:02:39;26.30;59.40
43520;DHT22;46848;51.980;5.918;2022-08-01T14:05:05;26.50;59.10
43520;DHT22;46848;51.980;5.918;2022-08-01T14:07:30;26.60;58.80
43520;DHT22;46848;51.980;5.918;2022-08-01T14:09:56;26.80;58.60
43520;DHT22;46848;51.980;5.918;2022-08-01T14:12:22;26.80;57.90
43520;DHT22;46848;51.980;5.918;2022-08-01T14:14:47;26.90;57.20
43520;DHT22;46848;51.980;5.918;2022-08-01T14:17:13;27.00;56.50
43520;DHT22;46848;51.980;5.918;2022-08-01T14:19:39;27.00;55.80
43520;DHT22;46848;51.980;5.918;2022-08-01T14:22:04;27.00;55.70
43520;DHT22;46848;51.980;5.918;2022-08-01T14:24:30;27.00;55.40
43520;DHT22;46848;51.980;5.918;2022-08-01T14:26:55;27.00;55.00
43520;DHT22;46848;51.980;5.918;2022-08-01T14:29:21;27.00;55.00
43520;DHT22;46848;51.980;5.918;2022-08-01T14:31:46;27.00;54.70
43520;DHT22;46848;51.980;5.918;2022-08-01T14:34:12;27.00;54.60
43520;DHT22;46848;51.980;5.918;2022-08-01T14:36:38;27.10;54.70
43520;DHT22;46848;51.980;5.918;2022-08-01T14:39:04;27.10;54.20
43520;DHT22;46848;51.980;5.918;2022-08-01T14:41:30;27.10;54.00
43520;DHT22;46848;51.980;5.918;2022-08-01T14:43:55;27.10;53.90
43520;DHT22;46848;51.980;5.918;2022-08-01T14:46:21;27.10;53.90
43520;DHT22;46848;51.980;5.918;2022-08-01T14:48:47;27.20;54.10
43520;DHT22;46848;51.980;5.918;2022-08-01T14:51:12;27.30;53.60
43520;DHT22;46848;51.980;5.918;2022-08-01T14:53:38;27.30;52.90
43520;DHT22;46848;51.980;5.918;2022-08-01T14:56:05;27.40;53.00
43520;DHT22;46848;51.980;5.918;2022-08-01T14:58:31;27.60;53.30
43520;DHT22;46848;51.980;5.918;2022-08-01T15:00:56;27.70;52.90
43520;DHT22;46848;51.980;5.918;2022-08-01T15:03:22;27.70;52.30
43520;DHT22;46848;51.980;5.918;2022-08-01T15:05:48;27.80;51.10
43520;DHT22;46848;51.980;5.918;2022-08-01T15:08:13;27.80;50.40
43520;DHT22;46848;51.980;5.918;2022-08-01T15:10:39;27.90;50.00
43520;DHT22;46848;51.980;5.918;2022-08-01T15:13:05;27.90;49.20
43520;DHT22;46848;51.980;5.918;2022-08-01T15:15:31;27.90;48.60
43520;DHT22;46848;51.980;5.918;2022-08-01T15:17:56;27.80;48.80
43520;DHT22;46848;51.980;5.918;2022-08-01T15:20:22;27.90;48.40
43520;DHT22;46848;51.980;5.918;2022-08-01T15:22:48;27.90;48.70
43520;DHT22;46848;51.980;5.918;2022-08-01T15:25:14;27.90;48.70
43520;DHT22;46848;51.980;5.918;2022-08-01T15:27:39;27.90;48.60
43520;DHT22;46848;51.980;5.918;2022-08-01T15:30:05;27.90;48.80
43520;DHT22;46848;51.980;5.918;2022-08-01T15:32:31;27.90;48.70
43520;DHT22;46848;51.980;5.918;2022-08-01T15:34:57;27.90;48.50
43520;DHT22;46848;51.980;5.918;2022-08-01T15:37:22;28.00;48.60
43520;DHT22;46848;51.980;5.918;2022-08-01T15:39:48;28.00;48.50
43520;DHT22;46848;51.980;5.918;2022-08-01T15:42:16;28.00;48.00
43520;DHT22;46848;51.980;5.918;2022-08-01T15:44:42;28.00;47.60
43520;DHT22;46848;51.980;5.918;2022-08-01T15:47:09;28.00;47.00
43520;DHT22;46848;51.980;5.918;2022-08-01T15:49:35;28.00;46.90
43520;DHT22;46848;51.980;5.918;2022-08-01T15:52:06;28.00;46.90
43520;DHT22;46848;51.980;5.918;2022-08-01T15:54:33;27.90;46.70
43520;DHT22;46848;51.980;5.918;2022-08-01T15:56:59;27.90;46.50
43520;DHT22;46848;51.980;5.918;2022-08-01T15:59:24;27.80;45.70
43520;DHT22;46848;51.980;5.918;2022-08-01T16:01:50;27.80;45.20
43520;DHT22;46848;51.980;5.918;2022-08-01T16:04:17;27.70;44.50
43520;DHT22;46848;51.980;5.918;2022-08-01T16:06:43;27.60;44.30
43520;DHT22;46848;51.980;5.918;2022-08-01T16:09:09;27.50;44.10
43520;DHT22;46848;51.980;5.918;2022-08-01T16:11:35;27.40;43.90
43520;DHT22;46848;51.980;5.918;2022-08-01T16:14:01;27.30;44.30
43520;DHT22;46848;51.980;5.918;2022-08-01T16:16:26;27.20;43.50
43520;DHT22;46848;51.980;5.918;2022-08-01T16:18:52;27.10;43.60
43520;DHT22;46848;51.980;5.918;2022-08-01T16:21:18;27.10;43.60
43520;DHT22;46848;51.980;5.918;2022-08-01T16:23:44;27.00;43.40
43520;DHT22;46848;51.980;5.918;2022-08-01T16:26:11;26.90;43.30
43520;DHT22;46848;51.980;5.918;2022-08-01T16:28:37;26.90;43.30
43520;DHT22;46848;51.980;5.918;2022-08-01T16:31:03;26.90;43.30
43520;DHT22;46848;51.980;5.918;2022-08-01T16:33:29;26.80;43.30